createdAt,value
2024-04-25T00:00:40.556Z,2.61
2024-04-25T00:01:40.524Z,2.61
2024-04-25T00:02:40.524Z,2.62
2024-04-25T00:03:40.482Z,2.64
2024-04-25T00:04:40.483Z,2.66
2024-04-25T00:05:40.477Z,2.68
2024-04-25T00:06:40.472Z,2.70
2024-04-25T00:07:40.435Z,2.71
2024-04-25T00:08:40.461Z,2.72
2024-04-25T00:09:40.427Z,2.72
2024-04-25T00:10:40.402Z,2.74
2024-04-25T00:11:40.557Z,2.74
2024-04-25T00:12:40.386Z,2.75
2024-04-25T00:13:40.391Z,2.74
2024-04-25T00:14:40.416Z,2.73
2024-04-25T00:15:40.356Z,2.71
2024-04-25T00:16:40.407Z,2.69
2024-04-25T00:17:40.403Z,2.68
2024-04-25T00:18:40.312Z,2.68
2024-04-25T00:19:40.289Z,2.68
2024-04-25T00:20:40.348Z,2.68
2024-04-25T00:21:40.314Z,2.68
2024-04-25T00:22:40.290Z,2.67
2024-04-25T00:23:40.277Z,2.67
2024-04-25T00:24:40.280Z,2.67
2024-04-25T00:25:40.250Z,2.68
2024-04-25T00:26:40.328Z,2.69
2024-04-25T00:27:40.225Z,2.69
2024-04-25T00:28:40.216Z,2.68
2024-04-25T00:29:40.273Z,2.68
2024-04-25T00:30:40.190Z,2.67
2024-04-25T00:31:40.182Z,2.67
2024-04-25T00:32:40.314Z,2.67
2024-04-25T00:33:40.194Z,2.66
2024-04-25T00:34:40.155Z,2.65
2024-04-25T00:35:40.196Z,2.64
2024-04-25T00:36:40.206Z,2.64
2024-04-25T00:37:40.131Z,2.63
2024-04-25T00:38:40.159Z,2.63
2024-04-25T00:39:40.108Z,2.62
2024-04-25T00:40:40.105Z,2.61
2024-04-25T00:41:40.131Z,2.59
2024-04-25T00:42:40.088Z,2.57
2024-04-25T00:43:40.057Z,2.56
2024-04-25T00:44:40.093Z,2.55
2024-04-25T00:45:40.030Z,2.53
2024-04-25T00:46:40.053Z,2.51
2024-04-25T00:47:40.185Z,2.50
2024-04-25T00:48:40.057Z,2.49
2024-04-25T00:49:40.016Z,2.49
2024-04-25T00:50:40.048Z,2.50
2024-04-25T00:51:40.011Z,2.49
2024-04-25T00:52:39.990Z,2.49
2024-04-25T00:53:40.193Z,2.48
2024-04-25T00:54:39.944Z,2.47
2024-04-25T00:55:39.947Z,2.45
2024-04-25T00:56:40.077Z,2.44
2024-04-25T00:57:39.957Z,2.42
2024-04-25T00:58:39.905Z,2.41
2024-04-25T00:59:39.938Z,2.40
2024-04-25T01:00:39.922Z,2.39
2024-04-25T01:01:39.886Z,2.39
2024-04-25T01:02:39.946Z,2.39
2024-04-25T01:03:39.896Z,2.40
2024-04-25T01:04:39.857Z,2.43
2024-04-25T01:05:40.014Z,2.46
2024-04-25T01:06:39.813Z,2.49
2024-04-25T01:07:39.844Z,2.51
2024-04-25T01:08:39.992Z,2.53
2024-04-25T01:09:39.840Z,2.54
2024-04-25T01:10:39.836Z,2.57
2024-04-25T01:11:39.868Z,2.58
2024-04-25T01:12:39.815Z,2.59
2024-04-25T01:13:39.765Z,2.59
2024-04-25T01:14:39.796Z,2.58
2024-04-25T01:15:39.747Z,2.56
2024-04-25T01:16:39.775Z,2.55
2024-04-25T01:17:39.955Z,2.53
2024-04-25T01:18:39.698Z,2.51
2024-04-25T01:19:39.701Z,2.49
2024-04-25T01:20:39.743Z,2.46
2024-04-25T01:21:39.648Z,2.45
2024-04-25T01:22:39.687Z,2.43
2024-04-25T01:23:39.667Z,2.43
2024-04-25T01:24:39.683Z,2.43
2024-04-25T01:25:39.632Z,2.44
2024-04-25T01:26:39.661Z,2.46
2024-04-25T01:27:39.686Z,2.47
2024-04-25T01:28:39.601Z,2.49
2024-04-25T01:29:39.667Z,2.50
2024-04-25T01:30:39.577Z,2.51
2024-04-25T01:31:39.571Z,2.52
2024-04-25T01:32:39.724Z,2.53
2024-04-25T01:33:39.585Z,2.53
2024-04-25T01:34:39.543Z,2.52
2024-04-25T01:35:39.634Z,2.51
2024-04-25T01:36:39.510Z,2.49
2024-04-25T01:37:39.540Z,2.46
2024-04-25T01:38:39.561Z,2.43
2024-04-25T01:39:39.476Z,2.39
2024-04-25T01:40:39.475Z,2.37
2024-04-25T01:41:39.527Z,2.35
2024-04-25T01:42:39.483Z,2.34
2024-04-25T01:43:39.461Z,2.33
2024-04-25T01:44:39.512Z,2.32
2024-04-25T01:45:39.415Z,2.30
2024-04-25T01:46:39.441Z,2.29
2024-04-25T01:47:39.602Z,2.28
2024-04-25T01:48:39.589Z,2.27
2024-04-25T01:49:39.383Z,2.26
2024-04-25T01:50:39.450Z,2.25
2024-04-25T01:51:39.365Z,2.24
2024-04-25T01:52:39.397Z,2.24
2024-04-25T01:53:39.391Z,2.23
2024-04-25T01:54:39.342Z,2.23
2024-04-25T01:55:39.345Z,2.22
2024-04-25T01:56:39.361Z,2.22
2024-04-25T01:57:39.329Z,2.22
2024-04-25T01:58:39.291Z,2.22
2024-04-25T01:59:39.341Z,2.21
2024-04-25T02:00:39.270Z,2.21
2024-04-25T02:01:39.257Z,2.21
2024-04-25T02:02:39.383Z,2.22
2024-04-25T02:03:39.266Z,2.22
2024-04-25T02:04:39.222Z,2.22
2024-04-25T02:05:41.056Z,2.23
2024-04-25T02:06:39.217Z,2.23
2024-04-25T02:07:39.243Z,2.23
2024-04-25T02:08:39.203Z,2.22
2024-04-25T02:09:39.209Z,2.21
2024-04-25T02:10:39.222Z,2.19
2024-04-25T02:11:39.227Z,2.18
2024-04-25T02:12:39.179Z,2.16
2024-04-25T02:13:39.149Z,2.15
2024-04-25T02:14:39.123Z,2.15
2024-04-25T02:15:39.112Z,2.16
2024-04-25T02:16:39.119Z,2.17
2024-04-25T02:17:39.170Z,2.18
2024-04-25T02:18:39.127Z,2.19
2024-04-25T02:19:39.081Z,2.19
2024-04-25T02:20:39.170Z,2.19
2024-04-25T02:21:39.056Z,2.21
2024-04-25T02:22:39.100Z,2.23
2024-04-25T02:23:39.064Z,2.25
2024-04-25T02:24:39.027Z,2.26
2024-04-25T02:25:39.029Z,2.27
2024-04-25T02:26:39.082Z,2.28
2024-04-25T02:27:39.023Z,2.28
2024-04-25T02:28:39.017Z,2.29
2024-04-25T02:29:39.075Z,2.29
2024-04-25T02:30:39.004Z,2.29
2024-04-25T02:31:38.948Z,2.29
2024-04-25T02:32:39.068Z,2.30
2024-04-25T02:33:38.993Z,2.30
2024-04-25T02:34:38.918Z,2.31
2024-04-25T02:35:38.945Z,2.31
2024-04-25T02:36:38.923Z,2.32
2024-04-25T02:37:38.898Z,2.33
2024-04-25T02:38:38.984Z,2.33
2024-04-25T02:39:38.874Z,2.33
2024-04-25T02:40:38.874Z,2.33
2024-04-25T02:41:38.928Z,2.32
2024-04-25T02:42:38.860Z,2.31
2024-04-25T02:43:38.840Z,2.31
2024-04-25T02:44:38.890Z,2.31
2024-04-25T02:45:38.819Z,2.29
2024-04-25T02:46:38.799Z,2.28
2024-04-25T02:47:38.919Z,2.26
2024-04-25T02:48:39.016Z,2.25
2024-04-25T02:49:38.786Z,2.24
2024-04-25T02:50:38.891Z,2.23
2024-04-25T02:51:38.765Z,2.22
2024-04-25T02:52:38.742Z,2.21
2024-04-25T02:53:38.791Z,2.20
2024-04-25T02:54:38.740Z,2.20
2024-04-25T02:55:38.768Z,2.19
2024-04-25T02:56:38.764Z,2.19
2024-04-25T02:57:38.706Z,2.18
2024-04-25T02:58:38.664Z,2.17
2024-04-25T02:59:38.737Z,2.15
2024-04-25T03:00:38.708Z,2.14
2024-04-25T03:01:38.688Z,2.13
2024-04-25T03:02:38.726Z,2.11
2024-04-25T03:03:38.660Z,2.10
2024-04-25T03:04:38.613Z,2.08
2024-04-25T03:05:38.633Z,2.07
2024-04-25T03:06:38.583Z,2.06
2024-04-25T03:07:38.628Z,2.07
2024-04-25T03:08:38.646Z,2.08
2024-04-25T03:09:38.576Z,2.09
2024-04-25T03:10:38.546Z,2.10
2024-04-25T03:11:38.639Z,2.11
2024-04-25T03:12:38.526Z,2.12
2024-04-25T03:13:40.957Z,2.12
2024-04-25T03:14:38.595Z,2.11
2024-04-25T03:15:38.505Z,2.12
2024-04-25T03:16:38.496Z,2.14
2024-04-25T03:17:38.563Z,2.16
2024-04-25T03:18:38.553Z,2.17
2024-04-25T03:19:38.467Z,2.19
2024-04-25T03:20:38.544Z,2.20
2024-04-25T03:21:38.453Z,2.21
2024-04-25T03:22:38.431Z,2.22
2024-04-25T03:23:38.613Z,2.22
2024-04-25T03:24:38.404Z,2.21
2024-04-25T03:25:38.412Z,2.20
2024-04-25T03:26:38.450Z,2.18
2024-04-25T03:27:38.374Z,2.16
2024-04-25T03:28:38.352Z,2.15
2024-04-25T03:29:38.442Z,2.14
2024-04-25T03:30:38.351Z,2.15
2024-04-25T03:31:38.470Z,2.16
2024-04-25T03:32:38.477Z,2.18
2024-04-25T03:33:38.335Z,2.19
2024-04-25T03:34:38.331Z,2.19
2024-04-25T03:35:38.361Z,2.18
2024-04-25T03:36:38.290Z,2.19
2024-04-25T03:37:38.284Z,2.20
2024-04-25T03:38:38.373Z,2.21
2024-04-25T03:39:38.263Z,2.21
2024-04-25T03:40:38.278Z,2.21
2024-04-25T03:41:38.297Z,2.20
2024-04-25T03:42:38.234Z,2.18
2024-04-25T03:43:38.216Z,2.16
2024-04-25T03:44:38.278Z,2.15
2024-04-25T03:45:38.226Z,2.16
2024-04-25T03:46:38.194Z,2.16
2024-04-25T03:47:38.448Z,2.17
2024-04-25T03:48:38.236Z,2.17
2024-04-25T03:49:38.156Z,2.18
2024-04-25T03:50:38.268Z,2.18
2024-04-25T03:51:38.123Z,2.19
2024-04-25T03:52:38.135Z,2.19
2024-04-25T03:53:38.162Z,2.19
2024-04-25T03:54:38.175Z,2.19
2024-04-25T03:55:38.103Z,2.19
2024-04-25T03:56:38.156Z,2.18
2024-04-25T03:57:38.081Z,2.18
2024-04-25T03:58:38.054Z,2.18
2024-04-25T03:59:38.107Z,2.18
2024-04-25T04:00:38.064Z,2.18
2024-04-25T04:01:38.044Z,2.17
2024-04-25T04:02:38.121Z,2.18
2024-04-25T04:03:38.034Z,2.20
2024-04-25T04:04:38.000Z,2.22
2024-04-25T04:05:38.094Z,2.23
2024-04-25T04:06:37.972Z,2.24
2024-04-25T04:07:37.967Z,2.24
2024-04-25T04:08:38.218Z,2.25
2024-04-25T04:09:37.952Z,2.26
2024-04-25T04:10:37.954Z,2.26
2024-04-25T04:11:38.077Z,2.26
2024-04-25T04:12:37.927Z,2.25
2024-04-25T04:13:37.923Z,2.25
2024-04-25T04:14:37.939Z,2.24
2024-04-25T04:15:37.893Z,2.23
2024-04-25T04:16:37.944Z,2.22
2024-04-25T04:17:37.987Z,2.22
2024-04-25T04:18:37.867Z,2.21
2024-04-25T04:19:37.855Z,2.20
2024-04-25T04:20:37.844Z,2.19
2024-04-25T04:21:37.819Z,2.18
2024-04-25T04:22:37.836Z,2.17
2024-04-25T04:23:37.851Z,2.17
2024-04-25T04:24:37.799Z,2.17
2024-04-25T04:25:37.774Z,2.18
2024-04-25T04:26:37.859Z,2.18
2024-04-25T04:27:37.763Z,2.18
2024-04-25T04:28:37.792Z,2.18
2024-04-25T04:29:37.851Z,2.19
2024-04-25T04:30:37.742Z,2.19
2024-04-25T04:31:37.729Z,2.18
2024-04-25T04:32:37.851Z,2.18
2024-04-25T04:33:40.818Z,2.18
2024-04-25T04:34:37.810Z,2.18
2024-04-25T04:35:37.737Z,2.17
2024-04-25T04:36:37.653Z,2.17
2024-04-25T04:37:37.664Z,2.17
2024-04-25T04:38:37.702Z,2.17
2024-04-25T04:39:37.643Z,2.18
2024-04-25T04:40:37.665Z,2.18
2024-04-25T04:41:37.699Z,2.18
2024-04-25T04:42:37.617Z,2.18
2024-04-25T04:43:37.630Z,2.19
2024-04-25T04:44:37.674Z,2.20
2024-04-25T04:45:37.582Z,2.20
2024-04-25T04:46:37.611Z,2.21
2024-04-25T04:47:37.711Z,2.21
2024-04-25T04:48:37.649Z,2.20
2024-04-25T04:49:37.534Z,2.21
2024-04-25T04:50:37.661Z,2.22
2024-04-25T04:51:39.135Z,2.23
2024-04-25T04:52:37.551Z,2.24
2024-04-25T04:53:37.601Z,2.25
2024-04-25T04:54:37.479Z,2.26
2024-04-25T04:55:37.465Z,2.27
2024-04-25T04:56:37.600Z,2.27
2024-04-25T04:57:37.424Z,2.27
2024-04-25T04:58:37.476Z,2.26
2024-04-25T04:59:37.486Z,2.24
2024-04-25T05:00:37.438Z,2.23
2024-04-25T05:01:37.418Z,2.21
2024-04-25T05:02:37.500Z,2.18
2024-04-25T05:03:37.541Z,2.16
2024-04-25T05:04:37.394Z,2.14
2024-04-25T05:05:37.493Z,2.13
2024-04-25T05:06:37.358Z,2.12
2024-04-25T05:07:37.390Z,2.11
2024-04-25T05:08:37.455Z,2.11
2024-04-25T05:09:37.327Z,2.13
2024-04-25T05:10:37.348Z,2.16
2024-04-25T05:11:37.392Z,2.19
2024-04-25T05:12:37.301Z,2.22
2024-04-25T05:13:37.301Z,2.27
2024-04-25T05:14:37.406Z,2.31
2024-04-25T05:15:37.268Z,2.36
2024-04-25T05:16:37.300Z,2.42
2024-04-25T05:17:39.806Z,2.49
2024-04-25T05:18:37.260Z,2.59
2024-04-25T05:19:37.231Z,2.69
2024-04-25T05:20:37.268Z,2.79
2024-04-25T05:21:37.191Z,2.90
2024-04-25T05:22:37.225Z,2.99
2024-04-25T05:23:37.263Z,3.06
2024-04-25T05:24:37.191Z,3.13
2024-04-25T05:25:37.195Z,3.19
2024-04-25T05:26:37.247Z,3.25
2024-04-25T05:27:37.155Z,3.28
2024-04-25T05:28:37.193Z,3.32
2024-04-25T05:29:39.158Z,3.36
2024-04-25T05:30:37.106Z,3.39
2024-04-25T05:31:37.143Z,3.44
2024-04-25T05:32:37.156Z,3.48
2024-04-25T05:33:37.142Z,3.53
2024-04-25T05:34:37.130Z,3.57
2024-04-25T05:35:37.228Z,3.62
2024-04-25T05:36:37.080Z,3.67
2024-04-25T05:37:37.045Z,3.72
2024-04-25T05:38:37.039Z,3.77
2024-04-25T05:39:37.031Z,3.82
2024-04-25T05:40:37.054Z,3.89
2024-04-25T05:41:37.078Z,3.94
2024-04-25T05:42:37.008Z,3.97
2024-04-25T05:43:36.966Z,3.97
2024-04-25T05:44:37.017Z,3.98
2024-04-25T05:45:36.960Z,4.01
2024-04-25T05:46:37.005Z,4.03
2024-04-25T05:47:37.021Z,4.04
2024-04-25T05:48:36.989Z,4.03
2024-04-25T05:49:36.907Z,4.04
2024-04-25T05:50:36.950Z,4.05
2024-04-25T05:51:36.887Z,4.09
2024-04-25T05:52:36.903Z,4.13
2024-04-25T05:53:36.902Z,4.15
2024-04-25T05:54:36.887Z,4.18
2024-04-25T05:55:36.862Z,4.21
2024-04-25T05:56:36.879Z,4.21
2024-04-25T05:57:36.824Z,4.17
2024-04-25T05:58:36.843Z,4.12
2024-04-25T05:59:36.957Z,4.12
2024-04-25T06:00:36.802Z,4.15
2024-04-25T06:01:36.785Z,4.22
2024-04-25T06:02:36.833Z,4.33
2024-04-25T06:03:36.906Z,4.47
2024-04-25T06:04:36.836Z,4.62
2024-04-25T06:05:36.755Z,4.74
2024-04-25T06:06:36.729Z,4.77
2024-04-25T06:07:36.734Z,4.76
2024-04-25T06:08:38.861Z,4.73
2024-04-25T06:09:36.755Z,4.71
2024-04-25T06:10:36.777Z,4.68
2024-04-25T06:11:36.769Z,4.60
2024-04-25T06:12:36.724Z,4.49
2024-04-25T06:13:36.652Z,4.38
2024-04-25T06:14:36.688Z,4.30
2024-04-25T06:15:36.702Z,4.28
2024-04-25T06:16:36.687Z,4.33
2024-04-25T06:17:36.714Z,4.43
2024-04-25T06:18:36.709Z,4.53
2024-04-25T06:19:36.591Z,4.64
2024-04-25T06:20:36.627Z,4.73
2024-04-25T06:21:36.633Z,4.76
2024-04-25T06:22:36.722Z,4.87
2024-04-25T06:23:36.615Z,4.99
2024-04-25T06:24:36.556Z,5.03
2024-04-25T06:25:36.536Z,5.03
2024-04-25T06:26:36.585Z,4.96
2024-04-25T06:27:36.506Z,4.86
2024-04-25T06:28:36.552Z,4.80
2024-04-25T06:29:36.539Z,4.76
2024-04-25T06:30:36.514Z,4.74
2024-04-25T06:31:36.480Z,4.76
2024-04-25T06:32:39.253Z,4.80
2024-04-25T06:33:36.566Z,4.85
2024-04-25T06:34:36.480Z,4.91
2024-04-25T06:35:36.503Z,4.97
2024-04-25T06:36:36.446Z,5.03
2024-04-25T06:37:36.419Z,5.07
2024-04-25T06:38:36.465Z,5.13
2024-04-25T06:39:36.389Z,5.20
2024-04-25T06:40:36.416Z,5.24
2024-04-25T06:41:42.915Z,5.25
2024-04-25T06:42:36.351Z,5.24
2024-04-25T06:43:36.360Z,5.22
2024-04-25T06:44:40.680Z,5.21
2024-04-25T06:45:36.418Z,5.23
2024-04-25T06:46:36.367Z,5.24
2024-04-25T06:47:36.508Z,5.29
2024-04-25T06:48:36.428Z,5.35
2024-04-25T06:49:36.300Z,5.42
2024-04-25T06:50:36.311Z,5.47
2024-04-25T06:51:36.271Z,5.47
2024-04-25T06:52:36.307Z,5.47
2024-04-25T06:53:36.278Z,5.48
2024-04-25T06:54:36.254Z,5.50
2024-04-25T06:55:36.224Z,5.54
2024-04-25T06:56:36.259Z,5.59
2024-04-25T06:57:36.234Z,5.63
2024-04-25T06:58:36.242Z,5.67
2024-04-25T06:59:36.285Z,5.71
2024-04-25T07:00:36.229Z,5.71
2024-04-25T07:01:36.227Z,5.69
2024-04-25T07:02:36.192Z,5.67
2024-04-25T07:03:36.166Z,5.67
2024-04-25T07:04:36.158Z,5.74
2024-04-25T07:05:36.154Z,5.87
2024-04-25T07:06:36.108Z,5.99
2024-04-25T07:07:36.103Z,6.00
2024-04-25T07:08:36.093Z,5.91
2024-04-25T07:09:36.088Z,5.75
2024-04-25T07:10:36.127Z,5.62
2024-04-25T07:11:36.167Z,5.54
2024-04-25T07:12:36.053Z,5.49
2024-04-25T07:13:36.036Z,5.42
2024-04-25T07:14:36.113Z,5.36
2024-04-25T07:15:36.015Z,5.29
2024-04-25T07:16:36.040Z,5.21
2024-04-25T07:17:36.223Z,5.15
2024-04-25T07:18:36.056Z,5.08
2024-04-25T07:19:35.977Z,5.02
2024-04-25T07:20:36.034Z,4.95
2024-04-25T07:21:35.952Z,4.86
2024-04-25T07:22:35.991Z,4.76
2024-04-25T07:23:36.017Z,4.65
2024-04-25T07:24:35.914Z,4.56
2024-04-25T07:25:35.912Z,4.49
2024-04-25T07:26:35.958Z,4.45
2024-04-25T07:27:35.880Z,4.44
2024-04-25T07:28:35.923Z,4.53
2024-04-25T07:29:36.327Z,4.75
2024-04-25T07:30:35.853Z,4.99
2024-04-25T07:31:35.845Z,5.17
2024-04-25T07:32:35.961Z,5.31
2024-04-25T07:33:36.005Z,5.49
2024-04-25T07:34:35.851Z,5.70
2024-04-25T07:35:35.885Z,5.81
2024-04-25T07:36:35.819Z,5.77
2024-04-25T07:37:35.808Z,5.71
2024-04-25T07:38:35.852Z,5.72
2024-04-25T07:39:35.823Z,5.81
2024-04-25T07:40:35.817Z,5.92
2024-04-25T07:41:35.802Z,6.08
2024-04-25T07:42:35.723Z,6.27
2024-04-25T07:43:35.719Z,6.46
2024-04-25T07:44:35.729Z,6.61
2024-04-25T07:45:35.687Z,6.72
2024-04-25T07:46:35.765Z,6.78
2024-04-25T07:47:35.857Z,6.81
2024-04-25T07:48:35.696Z,6.82
2024-04-25T07:49:35.656Z,6.86
2024-04-25T07:50:35.692Z,6.87
2024-04-25T07:51:35.628Z,6.78
2024-04-25T07:52:35.648Z,6.62
2024-04-25T07:53:35.653Z,6.42
2024-04-25T07:54:35.596Z,6.25
2024-04-25T07:55:35.624Z,6.12
2024-04-25T07:56:35.591Z,6.08
2024-04-25T07:57:35.558Z,6.10
2024-04-25T07:58:35.591Z,6.13
2024-04-25T07:59:35.549Z,6.14
2024-04-25T08:00:35.527Z,6.12
2024-04-25T08:01:35.530Z,6.08
2024-04-25T08:02:35.557Z,6.01
2024-04-25T08:03:35.592Z,5.93
2024-04-25T08:04:35.570Z,5.84
2024-04-25T08:05:35.532Z,5.79
2024-04-25T08:06:35.574Z,5.83
2024-04-25T08:07:35.463Z,5.93
2024-04-25T08:08:35.493Z,6.02
2024-04-25T08:09:35.450Z,6.14
2024-04-25T08:10:35.497Z,6.29
2024-04-25T08:11:35.506Z,6.49
2024-04-25T08:12:35.413Z,6.72
2024-04-25T08:13:35.402Z,6.93
2024-04-25T08:14:35.399Z,7.09
2024-04-25T08:15:35.387Z,7.26
2024-04-25T08:16:35.458Z,7.43
2024-04-25T08:17:35.503Z,7.59
2024-04-25T08:18:35.379Z,7.79
2024-04-25T08:19:35.324Z,7.97
2024-04-25T08:20:35.385Z,8.06
2024-04-25T08:21:35.347Z,8.15
2024-04-25T08:22:35.351Z,8.25
2024-04-25T08:23:35.355Z,8.27
2024-04-25T08:24:35.308Z,8.19
2024-04-25T08:25:35.290Z,8.07
2024-04-25T08:26:35.287Z,7.88
2024-04-25T08:27:35.442Z,7.63
2024-04-25T08:28:35.962Z,7.39
2024-04-25T08:29:35.247Z,7.21
2024-04-25T08:30:35.211Z,7.10
2024-04-25T08:31:36.008Z,7.01
2024-04-25T08:32:35.861Z,6.87
2024-04-25T08:33:35.235Z,6.73
2024-04-25T08:34:35.206Z,6.61
2024-04-25T08:35:35.182Z,6.52
2024-04-25T08:36:35.140Z,6.47
2024-04-25T08:37:35.157Z,6.47
2024-04-25T08:38:35.154Z,6.53
2024-04-25T08:39:35.186Z,6.66
2024-04-25T08:40:35.151Z,6.86
2024-04-25T08:41:35.124Z,7.03
2024-04-25T08:42:35.082Z,7.17
2024-04-25T08:43:35.068Z,7.32
2024-04-25T08:44:35.090Z,7.37
2024-04-25T08:45:35.074Z,7.30
2024-04-25T08:46:35.093Z,7.25
2024-04-25T08:47:35.109Z,7.25
2024-04-25T08:48:35.037Z,7.31
2024-04-25T08:49:35.012Z,7.40
2024-04-25T08:50:35.003Z,7.56
2024-04-25T08:51:34.992Z,7.76
2024-04-25T08:52:35.040Z,7.96
2024-04-25T08:53:34.981Z,8.16
2024-04-25T08:54:34.951Z,8.32
2024-04-25T08:55:34.958Z,8.43
2024-04-25T08:56:35.027Z,8.39
2024-04-25T08:57:34.924Z,8.22
2024-04-25T08:58:34.954Z,7.94
2024-04-25T08:59:34.915Z,7.63
2024-04-25T09:00:35.271Z,7.40
2024-04-25T09:01:34.872Z,7.37
2024-04-25T09:02:34.967Z,7.52
2024-04-25T09:03:35.039Z,7.70
2024-04-25T09:04:34.910Z,7.90
2024-04-25T09:05:34.862Z,8.08
2024-04-25T09:06:34.835Z,8.24
2024-04-25T09:07:34.812Z,8.42
2024-04-25T09:08:34.824Z,8.60
2024-04-25T09:09:34.802Z,8.76
2024-04-25T09:10:34.818Z,8.92
2024-04-25T09:11:34.879Z,9.11
2024-04-25T09:12:34.790Z,9.30
2024-04-25T09:13:34.745Z,9.41
2024-04-25T09:14:34.836Z,9.40
2024-04-25T09:15:34.729Z,9.26
2024-04-25T09:16:34.798Z,8.98
2024-04-25T09:17:38.098Z,8.62
2024-04-25T09:18:34.726Z,8.26
2024-04-25T09:19:34.681Z,7.95
2024-04-25T09:20:34.702Z,7.70
2024-04-25T09:21:34.663Z,7.53
2024-04-25T09:22:34.676Z,7.43
2024-04-25T09:23:34.667Z,7.40
2024-04-25T09:24:34.625Z,7.44
2024-04-25T09:25:34.629Z,7.60
2024-04-25T09:26:34.672Z,7.80
2024-04-25T09:27:34.597Z,7.96
2024-04-25T09:28:39.493Z,8.12
2024-04-25T09:29:34.578Z,8.28
2024-04-25T09:30:34.564Z,8.35
2024-04-25T09:31:34.562Z,8.36
2024-04-25T09:32:34.607Z,8.37
2024-04-25T09:33:34.612Z,8.34
2024-04-25T09:34:34.575Z,8.28
2024-04-25T09:35:34.579Z,8.23
2024-04-25T09:36:34.498Z,8.17
2024-04-25T09:37:34.504Z,8.06
2024-04-25T09:38:34.489Z,7.99
2024-04-25T09:39:34.479Z,8.07
2024-04-25T09:40:34.513Z,8.25
2024-04-25T09:41:34.480Z,8.42
2024-04-25T09:42:34.442Z,8.51
2024-04-25T09:43:34.451Z,8.49
2024-04-25T09:44:34.488Z,8.42
2024-04-25T09:45:34.406Z,8.32
2024-04-25T09:46:34.426Z,8.16
2024-04-25T09:47:34.446Z,7.96
2024-04-25T09:48:34.452Z,7.73
2024-04-25T09:49:34.365Z,7.53
2024-04-25T09:50:34.393Z,7.37
2024-04-25T09:51:34.360Z,7.24
2024-04-25T09:52:34.361Z,7.13
2024-04-25T09:53:37.526Z,7.04
2024-04-25T09:54:34.358Z,6.97
2024-04-25T09:55:34.301Z,6.92
2024-04-25T09:56:34.320Z,6.86
2024-04-25T09:57:34.336Z,6.74
2024-04-25T09:58:34.301Z,6.55
2024-04-25T09:59:34.297Z,6.30
2024-04-25T10:00:34.272Z,6.07
2024-04-25T10:01:34.267Z,5.87
2024-04-25T10:02:34.389Z,5.72
2024-04-25T10:03:34.260Z,5.58
2024-04-25T10:04:35.951Z,5.43
2024-04-25T10:05:34.238Z,5.28
2024-04-25T10:06:34.222Z,5.15
2024-04-25T10:07:34.180Z,5.04
2024-04-25T10:08:34.200Z,4.95
2024-04-25T10:09:34.155Z,4.89
2024-04-25T10:10:34.177Z,4.83
2024-04-25T10:11:34.196Z,4.78
2024-04-25T10:12:34.118Z,4.75
2024-04-25T10:13:34.115Z,4.75
2024-04-25T10:14:34.113Z,4.77
2024-04-25T10:15:34.099Z,4.80
2024-04-25T10:16:34.102Z,4.83
2024-04-25T10:17:34.458Z,4.86
2024-04-25T10:18:34.124Z,4.89
2024-04-25T10:19:34.050Z,4.91
2024-04-25T10:20:34.064Z,4.95
2024-04-25T10:21:34.009Z,5.09
2024-04-25T10:22:34.695Z,5.38
2024-04-25T10:23:34.101Z,5.77
2024-04-25T10:24:33.980Z,6.20
2024-04-25T10:25:33.974Z,6.67
2024-04-25T10:26:33.983Z,7.17
2024-04-25T10:27:33.956Z,7.55
2024-04-25T10:28:33.987Z,7.72
2024-04-25T10:29:33.967Z,7.78
2024-04-25T10:30:33.926Z,7.88
2024-04-25T10:31:33.923Z,8.03
2024-04-25T10:32:34.047Z,8.12
2024-04-25T10:33:34.073Z,8.14
2024-04-25T10:34:33.898Z,8.12
2024-04-25T10:35:33.991Z,8.11
2024-04-25T10:36:33.886Z,8.08
2024-04-25T10:37:33.864Z,8.02
2024-04-25T10:38:33.862Z,7.93
2024-04-25T10:39:33.834Z,7.81
2024-04-25T10:40:33.847Z,7.69
2024-04-25T10:41:33.903Z,7.52
2024-04-25T10:42:33.798Z,7.22
2024-04-25T10:43:33.796Z,6.86
2024-04-25T10:44:33.797Z,6.45
2024-04-25T10:45:34.101Z,6.08
2024-04-25T10:46:33.811Z,5.80
2024-04-25T10:47:33.810Z,5.58
2024-04-25T10:48:33.985Z,5.42
2024-04-25T10:49:33.749Z,5.33
2024-04-25T10:50:33.765Z,5.25
2024-04-25T10:51:33.751Z,5.20
2024-04-25T10:52:33.728Z,5.19
2024-04-25T10:53:33.687Z,5.23
2024-04-25T10:54:33.684Z,5.29
2024-04-25T10:55:33.650Z,5.38
2024-04-25T10:56:33.653Z,5.48
2024-04-25T10:57:33.625Z,5.56
2024-04-25T10:58:33.639Z,5.64
2024-04-25T10:59:33.670Z,5.71
2024-04-25T11:00:33.606Z,5.81
2024-04-25T11:01:33.591Z,5.95
2024-04-25T11:02:33.611Z,6.11
2024-04-25T11:03:33.589Z,6.27
2024-04-25T11:04:33.612Z,6.46
2024-04-25T11:05:33.575Z,6.69
2024-04-25T11:06:33.531Z,7.02
2024-04-25T11:07:33.538Z,7.39
2024-04-25T11:08:33.562Z,7.74
2024-04-25T11:09:33.497Z,7.96
2024-04-25T11:10:33.553Z,7.91
2024-04-25T11:11:33.563Z,7.68
2024-04-25T11:12:33.459Z,7.43
2024-04-25T11:13:33.449Z,7.27
2024-04-25T11:14:33.483Z,7.21
2024-04-25T11:15:33.431Z,7.17
2024-04-25T11:16:33.450Z,7.27
2024-04-25T11:17:39.927Z,7.50
2024-04-25T11:18:34.159Z,7.73
2024-04-25T11:19:42.888Z,7.92
2024-04-25T11:20:33.687Z,8.07
2024-04-25T11:21:33.506Z,8.16
2024-04-25T11:22:41.816Z,8.27
2024-04-25T11:23:33.422Z,8.40
2024-04-25T11:24:33.522Z,8.54
2024-04-25T11:25:33.342Z,8.66
2024-04-25T11:26:33.334Z,8.81
2024-04-25T11:27:33.327Z,8.96
2024-04-25T11:28:33.342Z,9.12
2024-04-25T11:29:33.324Z,9.27
2024-04-25T11:30:33.774Z,9.41
2024-04-25T11:31:33.248Z,9.52
2024-04-25T11:32:33.347Z,9.49
2024-04-25T11:33:33.327Z,9.45
2024-04-25T11:34:33.262Z,9.50
2024-04-25T11:35:33.256Z,9.56
2024-04-25T11:36:33.227Z,9.67
2024-04-25T11:37:33.195Z,9.87
2024-04-25T11:38:33.218Z,10.19
2024-04-25T11:39:33.199Z,10.54
2024-04-25T11:40:33.215Z,10.82
2024-04-25T11:41:33.212Z,11.02
2024-04-25T11:42:33.159Z,11.15
2024-04-25T11:43:33.141Z,11.16
2024-04-25T11:44:33.183Z,11.09
2024-04-25T11:45:35.416Z,10.97
2024-04-25T11:46:33.152Z,10.77
2024-04-25T11:47:33.218Z,10.56
2024-04-25T11:48:33.215Z,10.49
2024-04-25T11:49:33.079Z,10.54
2024-04-25T11:50:33.188Z,10.58
2024-04-25T11:51:33.076Z,10.61
2024-04-25T11:52:33.125Z,10.66
2024-04-25T11:53:33.073Z,10.66
2024-04-25T11:54:33.028Z,10.64
2024-04-25T11:55:33.009Z,10.63
2024-04-25T11:56:33.031Z,10.57
2024-04-25T11:57:32.995Z,10.42
2024-04-25T11:58:33.041Z,10.29
2024-04-25T11:59:33.058Z,10.24
2024-04-25T12:00:32.963Z,10.21
2024-04-25T12:01:32.945Z,10.23
2024-04-25T12:02:32.968Z,10.19
2024-04-25T12:03:32.947Z,10.12
2024-04-25T12:04:33.000Z,10.16
2024-04-25T12:05:32.918Z,10.31
2024-04-25T12:06:32.895Z,10.46
2024-04-25T12:07:32.896Z,10.66
2024-04-25T12:08:32.915Z,10.92
2024-04-25T12:09:32.878Z,11.27
2024-04-25T12:10:32.899Z,11.72
2024-04-25T12:11:32.905Z,12.23
2024-04-25T12:12:32.890Z,12.71
2024-04-25T12:13:32.824Z,12.96
2024-04-25T12:14:32.841Z,12.99
2024-04-25T12:15:32.790Z,12.82
2024-04-25T12:16:32.875Z,12.55
2024-04-25T12:17:33.754Z,12.26
2024-04-25T12:18:32.845Z,11.84
2024-04-25T12:19:32.770Z,11.31
2024-04-25T12:20:32.801Z,10.81
2024-04-25T12:21:32.747Z,10.41
2024-04-25T12:22:32.823Z,10.14
2024-04-25T12:23:32.721Z,9.98
2024-04-25T12:24:32.698Z,9.94
2024-04-25T12:25:32.699Z,9.96
2024-04-25T12:26:32.713Z,9.99
2024-04-25T12:27:32.670Z,10.04
2024-04-25T12:28:34.742Z,10.06
2024-04-25T12:29:32.667Z,10.00
2024-04-25T12:30:32.642Z,9.87
2024-04-25T12:31:32.642Z,9.77
2024-04-25T12:32:32.764Z,9.71
2024-04-25T12:33:32.946Z,9.71
2024-04-25T12:34:32.801Z,9.76
2024-04-25T12:35:32.609Z,9.88
2024-04-25T12:36:32.578Z,9.96
2024-04-25T12:37:32.558Z,10.01
2024-04-25T12:38:32.575Z,10.05
2024-04-25T12:39:32.598Z,10.03
2024-04-25T12:40:32.546Z,9.94
2024-04-25T12:41:32.555Z,9.85
2024-04-25T12:42:32.513Z,9.80
2024-04-25T12:43:32.495Z,9.82
2024-04-25T12:44:32.525Z,9.88
2024-04-25T12:45:34.324Z,9.97
2024-04-25T12:46:32.499Z,10.10
2024-04-25T12:47:32.559Z,10.25
2024-04-25T12:48:32.596Z,10.39
2024-04-25T12:49:32.455Z,10.51
2024-04-25T12:50:32.489Z,10.60
2024-04-25T12:51:32.404Z,10.74
2024-04-25T12:52:32.430Z,10.94
2024-04-25T12:53:32.393Z,11.25
2024-04-25T12:54:32.374Z,11.58
2024-04-25T12:55:32.379Z,11.84
2024-04-25T12:56:32.396Z,12.08
2024-04-25T12:57:32.342Z,12.35
2024-04-25T12:58:32.357Z,12.56
2024-04-25T12:59:32.385Z,12.67
2024-04-25T13:00:32.353Z,12.71
2024-04-25T13:01:32.296Z,12.68
2024-04-25T13:02:32.306Z,12.57
2024-04-25T13:03:32.312Z,12.35
2024-04-25T13:04:32.342Z,12.11
2024-04-25T13:05:32.278Z,11.90
2024-04-25T13:06:32.246Z,11.68
2024-04-25T13:07:32.226Z,11.39
2024-04-25T13:08:32.292Z,11.10
2024-04-25T13:09:32.211Z,10.89
2024-04-25T13:10:32.243Z,10.79
2024-04-25T13:11:32.327Z,10.74
2024-04-25T13:12:32.190Z,10.69
2024-04-25T13:13:32.143Z,10.58
2024-04-25T13:14:32.176Z,10.45
2024-04-25T13:15:32.142Z,10.31